Time;durP1;ratioP1;P1;durP2;ratioP2;P2;SDS_P1;SDS_P2;PMS_P1;PMS_P2;Temp;Humidity;BMP_temperature;BMP_pressure;BME280_temperature;BME280_humidity;BME280_pressure;Samples;Min_cycle;Max_cycle;Signal;HPM_P1;HPM_P2
2023/10/11 00:02:54;;;;;;;19.17;6.38;;;17.00;99.90;;;;;;5103621;28;20028;-78
2023/10/11 00:05:19;;;;;;;16.92;7.75;;;17.00;99.90;;;;;;5103579;28;20042;-77
2023/10/11 00:07:45;;;;;;;17.92;6.53;;;17.00;99.90;;;;;;5105370;28;20027;-76
2023/10/11 00:10:11;;;;;;;12.90;6.55;;;17.00;99.90;;;;;;5103420;28;20028;-78
2023/10/11 00:12:41;;;;;;;16.65;6.60;;;16.90;99.90;;;;;;5103312;28;20088;-78
2023/10/11 00:15:08;;;;;;;14.98;7.15;;;16.90;99.90;;;;;;5104299;28;20085;-76
2023/10/11 00:17:36;;;;;;;16.63;6.72;;;16.90;99.90;;;;;;5103337;28;20438;-77
2023/10/11 00:20:15;;;;;;;19.88;7.35;;;16.90;99.90;;;;;;5102925;28;20028;-76
2023/10/11 00:22:41;;;;;;;16.90;6.90;;;16.90;99.90;;;;;;5104896;28;20591;-78
2023/10/11 00:25:07;;;;;;;17.63;6.80;;;16.80;99.90;;;;;;5104448;28;20044;-77
2023/10/11 00:27:33;;;;;;;11.20;6.43;;;16.80;99.90;;;;;;5104789;28;20031;-74
2023/10/11 00:29:59;;;;;;;18.27;6.75;;;16.80;99.90;;;;;;5104523;28;20020;-79
2023/10/11 00:32:24;;;;;;;18.90;6.88;;;16.80;99.90;;;;;;5102431;28;20040;-78
2023/10/11 00:34:50;;;;;;;14.00;6.82;;;16.70;99.90;;;;;;5104523;28;20036;-76
2023/10/11 00:37:16;;;;;;;24.48;7.28;;;16.70;99.90;;;;;;5103055;28;20480;-76
2023/10/11 00:39:43;;;;;;;13.68;6.97;;;16.70;99.90;;;;;;5104351;28;20042;-77
2023/10/11 00:42:10;;;;;;;14.45;6.57;;;16.70;99.90;;;;;;5103005;28;20822;-79
2023/10/11 00:44:36;;;;;;;14.43;6.78;;;16.70;99.90;;;;;;5103071;28;20024;-77
2023/10/11 00:47:06;;;;;;;14.10;6.70;;;16.70;99.90;;;;;;5102796;28;20058;-76
2023/10/11 00:49:36;;;;;;;17.52;6.95;;;16.60;99.90;;;;;;5103904;28;20020;-76
2023/10/11 00:52:06;;;;;;;13.48;6.93;;;16.60;99.90;;;;;;5102544;28;20039;-80
2023/10/11 00:54:33;;;;;;;16.58;7.15;;;16.60;99.90;;;;;;5101914;28;20107;-77
2023/10/11 00:57:00;;;;;;;21.05;7.28;;;16.60;99.90;;;;;;5102834;28;20057;-80
2023/10/11 00:59:28;;;;;;;16.27;6.45;;;16.50;99.90;;;;;;5103465;28;20059;-77
2023/10/11 01:01:55;;;;;;;15.32;7.30;;;16.50;99.90;;;;;;5102052;28;20020;-77
2023/10/11 01:04:22;;;;;;;18.00;7.32;;;16.50;99.90;;;;;;5102647;28;20043;-77
2023/10/11 01:06:48;;;;;;;22.23;7.63;;;16.50;99.90;;;;;;5103411;28;20024;-75
2023/10/11 01:09:18;;;;;;;16.98;6.85;;;16.50;99.90;;;;;;5102557;28;20092;-79
2023/10/11 01:11:47;;;;;;;15.27;6.95;;;16.50;99.90;;;;;;5101886;28;20024;-78
2023/10/11 01:14:13;;;;;;;22.42;7.22;;;16.50;99.90;;;;;;5101649;28;20040;-78
2023/10/11 01:16:39;;;;;;;14.43;6.97;;;16.50;99.90;;;;;;5102425;28;20050;-75
2023/10/11 01:19:10;;;;;;;15.75;7.30;;;16.50;99.90;;;;;;5103457;28;20032;-77
2023/10/11 01:21:41;;;;;;;16.42;6.90;;;16.50;99.90;;;;;;5103347;28;20069;-78
2023/10/11 01:24:10;;;;;;;20.13;7.50;;;16.50;99.90;;;;;;5102067;28;20028;-76
2023/10/11 01:26:37;;;;;;;16.08;7.53;;;16.50;99.90;;;;;;5103307;28;20036;-78
2023/10/11 01:29:02;;;;;;;13.32;7.13;;;16.50;99.90;;;;;;5102452;28;20485;-79
2023/10/11 01:31:33;;;;;;;16.13;7.53;;;16.50;99.90;;;;;;5103480;28;20030;-73
2023/10/11 01:33:59;;;;;;;22.65;7.82;;;16.50;99.90;;;;;;5103130;28;20027;-77
2023/10/11 01:36:26;;;;;;;12.40;7.30;;;16.50;99.90;;;;;;5101676;28;20024;-75
2023/10/11 01:38:52;;;;;;;16.20;7.82;;;16.50;99.90;;;;;;5101848;28;20062;-79
2023/10/11 01:41:27;;;;;;;20.90;8.25;;;16.50;99.90;;;;;;5103304;28;20084;-78
2023/10/11 01:43:54;;;;;;;16.42;7.75;;;16.50;99.90;;;;;;5101520;28;20409;-78
2023/10/11 01:46:25;;;;;;;20.20;8.05;;;16.50;99.90;;;;;;5102895;28;20487;-79
2023/10/11 01:48:52;;;;;;;21.00;7.72;;;16.50;99.90;;;;;;5102499;28;20049;-78
2023/10/11 01:51:25;;;;;;;21.35;8.63;;;16.50;99.90;;;;;;5102980;28;20111;-77
2023/10/11 01:53:54;;;;;;;19.85;8.57;;;16.50;99.90;;;;;;5102856;28;20090;-77
2023/10/11 01:56:23;;;;;;;16.10;8.02;;;16.50;99.90;;;;;;5100954;28;20035;-78
2023/10/11 01:58:50;;;;;;;16.92;8.07;;;16.50;99.90;;;;;;5102693;28;21111;-78
2023/10/11 02:01:25;;;;;;;22.65;8.80;;;16.50;99.90;;;;;;5101062;28;20428;-78
2023/10/11 02:03:53;;;;;;;17.83;8.10;;;16.50;99.90;;;;;;5101132;28;20028;-77
2023/10/11 02:06:20;;;;;;;22.42;10.23;;;16.50;99.90;;;;;;5101635;28;20099;-77
2023/10/11 02:08:46;;;;;;;27.77;11.00;;;16.50;99.90;;;;;;5102211;28;20461;-77
2023/10/11 02:11:14;;;;;;;49.25;26.85;;;16.50;99.90;;;;;;5102566;28;20031;-77
2023/10/11 02:13:43;;;;;;;105.95;57.00;;;16.50;99.90;;;;;;5100697;28;20091;-75
2023/10/11 02:16:11;;;;;;;300.23;173.95;;;16.50;99.90;;;;;;5100679;28;20085;-75
2023/10/11 02:18:39;;;;;;;274.45;155.38;;;16.50;99.90;;;;;;5101705;28;20028;-75
2023/10/11 02:21:06;;;;;;;269.23;154.85;;;16.50;99.90;;;;;;5100620;28;20055;-78
2023/10/11 02:23:39;;;;;;;233.43;139.43;;;16.40;99.90;;;;;;5102567;28;20051;-76
2023/10/11 02:26:18;;;;;;;198.95;119.15;;;16.40;99.90;;;;;;5101614;28;20023;-77
2023/10/11 02:28:46;;;;;;;120.47;69.25;;;16.40;99.90;;;;;;5101268;28;20028;-77
2023/10/11 02:31:20;;;;;;;193.02;112.90;;;16.40;99.90;;;;;;5100997;28;20028;-77
2023/10/11 02:33:51;;;;;;;227.50;130.65;;;16.40;99.90;;;;;;5101318;28;20031;-77
2023/10/11 02:36:18;;;;;;;217.27;118.28;;;16.40;99.90;;;;;;5100915;28;20032;-79
2023/10/11 02:38:50;;;;;;;133.43;73.10;;;16.40;99.90;;;;;;5100200;28;20024;-78
2023/10/11 02:41:24;;;;;;;106.55;60.50;;;16.40;99.90;;;;;;5102090;28;20028;-74
2023/10/11 02:43:53;;;;;;;102.22;58.88;;;16.40;99.90;;;;;;5100659;28;20039;-77
2023/10/11 02:46:23;;;;;;;173.80;99.85;;;16.40;99.90;;;;;;5100315;28;20032;-76
2023/10/11 02:49:06;;;;;;;157.68;81.93;;;16.40;99.90;;;;;;5100588;28;20020;-75
2023/10/11 02:51:33;;;;;;;93.18;46.17;;;16.40;99.90;;;;;;5101628;28;20020;-76
2023/10/11 02:54:04;;;;;;;65.82;34.17;;;16.40;99.90;;;;;;5099644;28;20094;-77
2023/10/11 02:56:46;;;;;;;32.33;15.35;;;16.40;99.90;;;;;;5095510;28;20027;-76
2023/10/11 02:59:19;;;;;;;28.33;11.80;;;16.30;99.90;;;;;;5098997;28;20020;-75
2023/10/11 03:01:59;;;;;;;20.75;10.10;;;16.30;99.90;;;;;;5101148;28;20036;-75
2023/10/11 03:04:38;;;;;;;20.02;10.07;;;16.30;99.90;;;;;;5101876;28;20023;-76
2023/10/11 03:07:04;;;;;;;16.98;9.10;;;16.30;99.90;;;;;;5101600;28;20039;-73
2023/10/11 03:09:33;;;;;;;20.63;8.93;;;16.30;99.90;;;;;;5099917;28;20028;-75
2023/10/11 03:12:05;;;;;;;21.52;10.43;;;16.20;99.90;;;;;;5100003;28;20024;-75
2023/10/11 03:14:41;;;;;;;17.90;9.02;;;16.20;99.90;;;;;;5100052;28;20040;-72
2023/10/11 03:17:13;;;;;;;21.30;9.90;;;16.20;99.90;;;;;;5098778;28;20024;-72
2023/10/11 03:19:42;;;;;;;20.63;9.80;;;16.20;99.90;;;;;;5100827;28;20487;-76
2023/10/11 03:22:08;;;;;;;19.88;9.30;;;16.10;99.90;;;;;;5100672;28;20016;-67
2023/10/11 03:24:39;;;;;;;28.48;10.07;;;16.20;99.90;;;;;;5101033;28;20024;-78
2023/10/11 03:27:09;;;;;;;20.83;9.75;;;16.10;99.90;;;;;;5099228;28;20031;-76
2023/10/11 03:29:35;;;;;;;22.25;9.60;;;16.10;99.90;;;;;;5099641;28;20023;-83
2023/10/11 03:32:00;;;;;;;22.73;10.50;;;16.10;99.90;;;;;;5099632;28;20024;-78
2023/10/11 03:34:29;;;;;;;18.15;10.07;;;16.10;99.90;;;;;;5100992;28;20107;-74
2023/10/11 03:36:58;;;;;;;24.58;10.23;;;16.10;99.90;;;;;;5101119;28;20028;-77
2023/10/11 03:39:44;;;;;;;22.60;9.77;;;16.10;99.90;;;;;;5103502;28;20027;-76
2023/10/11 03:44:36;;;;;;;23.35;10.23;;;16.10;99.90;;;;;;5104559;28;20024;-77
2023/10/11 03:47:08;;;;;;;19.05;9.90;;;16.10;99.90;;;;;;5102552;28;20031;-78
2023/10/11 03:52:43;;;;;;;19.92;9.55;;;16.00;99.90;;;;;;5104972;28;20027;-76
2023/10/11 03:55:12;;;;;;;23.80;10.32;;;16.00;99.90;;;;;;5104103;28;20048;-77
2023/10/11 03:57:42;;;;;;;18.92;9.98;;;16.00;99.90;;;;;;5104238;28;20024;-78
2023/10/11 04:02:48;;;;;;;19.58;9.10;;;16.00;99.90;;;;;;5103289;28;20115;-79
2023/10/11 04:05:14;;;;;;;21.70;9.85;;;16.00;99.90;;;;;;5104320;28;20106;-78
2023/10/11 04:07:40;;;;;;;24.88;10.27;;;16.00;99.90;;;;;;5104236;28;20024;-78
2023/10/11 04:10:19;;;;;;;22.60;10.07;;;15.90;99.90;;;;;;5103603;28;20035;-75
2023/10/11 04:12:45;;;;;;;26.40;10.05;;;15.90;99.90;;;;;;5104388;28;20020;-80
2023/10/11 04:15:30;;;;;;;24.02;9.65;;;15.90;99.90;;;;;;5104553;28;20036;-81
2023/10/11 04:17:56;;;;;;;20.02;9.88;;;15.90;99.90;;;;;;5104105;28;20052;-78
2023/10/11 04:20:31;;;;;;;17.77;8.75;;;15.90;99.90;;;;;;5104533;28;20032;-75
2023/10/11 04:23:10;;;;;;;20.23;9.77;;;15.90;99.90;;;;;;5102707;28;20040;-74
2023/10/11 04:25:38;;;;;;;25.85;10.30;;;15.90;99.90;;;;;;5102494;28;20097;-76
2023/10/11 04:28:05;;;;;;;17.40;9.55;;;15.90;99.90;;;;;;5102751;28;20083;-79
2023/10/11 04:30:47;;;;;;;22.85;10.05;;;15.90;99.90;;;;;;5104084;28;20020;-78
2023/10/11 04:33:23;;;;;;;22.95;9.90;;;15.90;99.90;;;;;;5102668;28;20027;-74
2023/10/11 04:35:58;;;;;;;24.10;10.10;;;15.90;99.90;;;;;;5103276;28;20032;-75
2023/10/11 04:38:24;;;;;;;23.35;9.93;;;15.90;99.90;;;;;;5102028;28;20415;-73
2023/10/11 04:40:51;;;;;;;19.80;9.60;;;15.90;99.90;;;;;;5103933;28;20058;-75
2023/10/11 04:43:24;;;;;;;22.67;9.90;;;15.90;99.90;;;;;;5102535;28;20016;-76
2023/10/11 04:46:07;;;;;;;22.58;9.73;;;15.90;99.90;;;;;;5103550;28;20388;-77
2023/10/11 04:48:33;;;;;;;18.38;9.82;;;15.90;99.90;;;;;;5102247;28;20028;-73
2023/10/11 04:51:04;;;;;;;18.65;9.85;;;15.90;99.90;;;;;;5103158;28;20152;-74
2023/10/11 04:59:06;;;;;;;30.63;10.38;;;15.80;99.90;;;;;;5103484;28;20039;-76
2023/10/11 05:01:58;;;;;;;17.08;9.18;;;15.80;99.90;;;;;;5101445;28;20035;-73
2023/10/11 05:07:19;;;;;;;24.10;10.15;;;15.80;99.90;;;;;;5100028;28;20039;-75
2023/10/11 05:09:56;;;;;;;20.35;9.70;;;15.80;99.90;;;;;;5102065;28;20510;-73
2023/10/11 05:12:23;;;;;;;22.27;9.88;;;15.80;99.90;;;;;;5098370;28;20047;-77
2023/10/11 05:19:57;;;;;;;22.63;9.80;;;15.80;99.90;;;;;;5103343;28;20038;-79
2023/10/11 05:51:39;;;;;;;23.70;9.77;;;15.70;99.90;;;;;;5103326;28;20039;-75
2023/10/11 05:54:11;;;;;;;20.35;9.48;;;15.70;99.90;;;;;;5100147;28;20051;-75
2023/10/11 05:56:45;;;;;;;21.88;9.23;;;15.70;99.90;;;;;;5100737;28;20027;-80
2023/10/11 05:59:13;;;;;;;24.48;9.82;;;15.70;99.90;;;;;;5102128;28;20033;-75
2023/10/11 06:01:52;;;;;;;24.05;9.57;;;15.80;99.90;;;;;;5102227;28;20107;-79
2023/10/11 06:04:23;;;;;;;24.42;9.70;;;15.80;99.90;;;;;;5101278;28;20032;-77
2023/10/11 06:06:52;;;;;;;21.45;9.65;;;15.80;99.90;;;;;;5101268;28;20049;-78
2023/10/11 06:09:26;;;;;;;22.60;10.32;;;15.80;99.90;;;;;;5102387;28;20357;-78
2023/10/11 06:11:51;;;;;;;25.50;9.32;;;15.80;99.90;;;;;;5103094;28;20024;-77
2023/10/11 06:14:23;;;;;;;23.85;9.52;;;15.80;99.90;;;;;;5101389;28;20035;-76
2023/10/11 06:16:57;;;;;;;23.55;9.93;;;15.80;99.90;;;;;;5101344;28;20106;-78
2023/10/11 06:19:28;;;;;;;21.47;9.53;;;15.80;99.90;;;;;;5101016;28;20485;-79
2023/10/11 06:21:59;;;;;;;18.95;9.63;;;15.80;99.90;;;;;;5102713;28;20047;-79
2023/10/11 06:24:38;;;;;;;19.15;9.25;;;15.80;99.90;;;;;;5100815;28;20032;-71
2023/10/11 06:29:45;;;;;;;17.30;9.30;;;15.90;99.90;;;;;;5102290;28;20016;-75
2023/10/11 06:32:11;;;;;;;24.00;9.40;;;15.90;99.90;;;;;;5100788;28;20456;-72
2023/10/11 06:34:38;;;;;;;25.05;9.95;;;15.90;99.90;;;;;;5102270;28;20109;-76
2023/10/11 06:37:06;;;;;;;23.40;10.30;;;15.90;99.90;;;;;;5100980;28;20066;-79
2023/10/11 06:42:23;;;;;;;22.38;9.32;;;16.00;99.90;;;;;;5102307;28;20028;-74
2023/10/11 06:44:59;;;;;;;23.75;9.80;;;16.00;99.90;;;;;;5100708;28;20024;-79
2023/10/11 06:47:27;;;;;;;24.33;10.25;;;16.00;99.90;;;;;;5100576;28;20036;-75
2023/10/11 06:49:55;;;;;;;25.02;9.95;;;16.00;99.90;;;;;;5101560;28;20042;-77
2023/10/11 06:52:30;;;;;;;19.00;9.90;;;16.10;99.90;;;;;;5099822;28;20158;-77
2023/10/11 06:57:45;;;;;;;21.60;9.13;;;16.10;99.90;;;;;;5102131;28;20404;-75
2023/10/11 07:00:21;;;;;;;26.20;13.00;;;16.10;99.90;;;;;;5099833;28;20388;-77
2023/10/11 07:03:09;;;;;;;29.67;10.32;;;16.10;99.90;;;;;;5101962;28;20036;-75
2023/10/11 07:05:42;;;;;;;25.27;11.20;;;16.10;99.90;;;;;;5101756;28;20023;-77
2023/10/11 07:08:09;;;;;;;21.75;9.82;;;16.10;99.90;;;;;;5101316;28;20474;-79
2023/10/11 07:10:40;;;;;;;20.98;9.82;;;16.20;99.90;;;;;;5101891;28;20178;-77
2023/10/11 07:13:07;;;;;;;22.38;10.07;;;16.20;99.90;;;;;;5104599;28;20476;-70
2023/10/11 07:15:37;;;;;;;22.00;9.95;;;16.20;99.90;;;;;;5105502;28;20477;-76
2023/10/11 07:18:11;;;;;;;24.17;9.88;;;16.20;99.90;;;;;;5105819;28;20020;-76
2023/10/11 07:20:48;;;;;;;28.80;10.35;;;16.20;99.90;;;;;;5105647;28;20035;-76
2023/10/11 07:23:21;;;;;;;18.88;9.45;;;16.20;99.90;;;;;;5103919;28;20032;-73
2023/10/11 07:25:59;;;;;;;28.13;10.32;;;16.30;99.90;;;;;;5102057;28;20040;-74
2023/10/11 07:28:37;;;;;;;23.13;10.30;;;16.30;99.90;;;;;;5103243;28;20048;-71
2023/10/11 07:31:04;;;;;;;31.70;10.10;;;16.30;99.90;;;;;;5104369;28;20084;-73
2023/10/11 07:33:31;;;;;;;21.75;9.48;;;16.30;99.90;;;;;;5102755;28;20051;-70
2023/10/11 07:36:00;;;;;;;29.63;9.55;;;16.30;99.90;;;;;;5101240;28;20777;-72
2023/10/11 07:38:34;;;;;;;24.20;9.68;;;16.40;99.90;;;;;;5103316;28;20028;-71
2023/10/11 07:41:17;;;;;;;21.80;11.00;;;16.50;99.90;;;;;;5103432;28;20020;-76
2023/10/11 07:43:45;;;;;;;22.05;9.50;;;16.50;99.90;;;;;;5101851;28;20036;-74
2023/10/11 07:46:11;;;;;;;24.77;10.55;;;16.50;99.90;;;;;;5101249;28;20488;-75
2023/10/11 07:48:39;;;;;;;24.63;10.23;;;16.60;99.90;;;;;;5104435;28;20042;-73
2023/10/11 07:51:09;;;;;;;27.00;10.32;;;16.60;99.90;;;;;;5102839;28;20413;-76
2023/10/11 07:53:45;;;;;;;18.77;10.35;;;16.60;99.90;;;;;;5105224;28;20063;-74
2023/10/11 07:56:15;;;;;;;23.33;10.30;;;16.70;99.90;;;;;;5104199;28;20032;-76
2023/10/11 07:58:45;;;;;;;26.38;10.43;;;16.70;99.90;;;;;;5101665;28;20095;-76
2023/10/11 08:04:22;;;;;;;27.40;10.38;;;16.80;99.90;;;;;;5090908;28;20048;-75
2023/10/11 08:06:59;;;;;;;25.55;10.60;;;16.80;99.90;;;;;;5103120;28;20036;-72
2023/10/11 08:09:26;;;;;;;19.77;10.15;;;16.90;99.90;;;;;;5103705;28;20042;-77
2023/10/11 08:11:59;;;;;;;25.20;11.25;;;16.90;99.90;;;;;;5103017;28;20070;-73
2023/10/11 08:14:32;;;;;;;23.90;11.48;;;17.00;99.90;;;;;;5105087;28;20376;-76
2023/10/11 08:16:59;;;;;;;26.98;13.65;;;17.00;99.90;;;;;;5103510;28;20045;-75
2023/10/11 08:19:25;;;;;;;47.33;19.98;;;17.10;99.90;;;;;;5102941;28;20028;-73
2023/10/11 08:21:57;;;;;;;29.88;13.02;;;17.20;99.90;;;;;;5104503;28;20039;-78
2023/10/11 08:24:25;;;;;;;34.33;16.45;;;17.10;99.90;;;;;;5103599;28;20020;-77
2023/10/11 08:27:05;;;;;;;33.55;14.10;;;17.10;99.90;;;;;;5103049;28;20030;-74
2023/10/11 08:29:31;;;;;;;31.80;11.90;;;17.10;99.90;;;;;;5103273;28;20054;-76
2023/10/11 08:32:01;;;;;;;24.52;11.43;;;17.20;99.90;;;;;;5101490;28;20020;-77
2023/10/11 08:34:28;;;;;;;28.63;11.25;;;17.20;99.90;;;;;;5104103;28;20027;-75
2023/10/11 08:36:56;;;;;;;19.52;11.02;;;17.20;99.90;;;;;;5102393;28;20028;-77
2023/10/11 08:39:35;;;;;;;28.48;11.45;;;17.20;99.90;;;;;;5103011;28;20132;-76
2023/10/11 08:42:16;;;;;;;22.48;10.80;;;17.20;99.90;;;;;;5103960;28;20031;-78
2023/10/11 08:44:46;;;;;;;26.45;11.77;;;17.20;99.90;;;;;;5104087;28;20032;-76
2023/10/11 08:47:19;;;;;;;28.25;11.05;;;17.20;99.90;;;;;;5104063;28;20020;-74
2023/10/11 08:49:49;;;;;;;26.75;11.75;;;17.30;99.90;;;;;;5102337;28;20032;-76
2023/10/11 08:52:28;;;;;;;24.38;11.35;;;17.20;99.90;;;;;;5102635;28;20070;-72
2023/10/11 08:54:53;;;;;;;25.30;11.43;;;17.20;99.90;;;;;;5103368;28;20538;-76
2023/10/11 08:57:23;;;;;;;27.45;12.35;;;17.20;99.90;;;;;;5104235;28;20020;-77
2023/10/11 08:59:56;;;;;;;29.05;11.48;;;17.20;99.90;;;;;;5103897;28;20035;-72
2023/10/11 09:02:33;;;;;;;31.63;12.38;;;17.20;99.90;;;;;;5102186;28;20028;-76
2023/10/11 09:05:07;;;;;;;23.00;10.75;;;17.20;99.90;;;;;;5102700;28;20046;-73
2023/10/11 09:07:45;;;;;;;27.95;12.23;;;17.20;99.90;;;;;;5103700;28;20024;-75
2023/10/11 09:10:28;;;;;;;27.70;12.02;;;17.30;99.90;;;;;;5102350;28;20061;-79
2023/10/11 09:12:59;;;;;;;26.73;12.82;;;17.30;99.90;;;;;;5102376;28;20434;-75
2023/10/11 09:15:44;;;;;;;27.80;13.05;;;17.30;99.90;;;;;;5103293;28;20060;-75
2023/10/11 09:18:18;;;;;;;31.77;13.60;;;17.30;99.90;;;;;;5101757;28;20040;-69
2023/10/11 09:21:08;;;;;;;32.90;13.60;;;17.30;99.90;;;;;;5103191;28;20028;-77
2023/10/11 09:23:38;;;;;;;26.55;12.82;;;17.30;99.90;;;;;;5102233;28;20024;-77
2023/10/11 09:26:05;;;;;;;36.55;14.25;;;17.30;99.90;;;;;;5102888;28;20058;-76
2023/10/11 09:28:40;;;;;;;30.08;13.30;;;17.30;99.90;;;;;;5101661;28;20020;-74
2023/10/11 09:31:32;;;;;;;27.98;13.13;;;17.30;99.90;;;;;;5102386;28;21219;-76
2023/10/11 09:34:00;;;;;;;27.33;13.00;;;17.30;99.90;;;;;;5102377;28;20036;-73
2023/10/11 09:36:28;;;;;;;30.25;14.75;;;17.30;99.90;;;;;;5102418;28;20538;-79
2023/10/11 09:38:54;;;;;;;28.98;13.75;;;17.30;99.90;;;;;;5102836;28;20020;-75
2023/10/11 09:41:40;;;;;;;32.75;15.20;;;17.30;99.90;;;;;;5101573;28;20107;-74
2023/10/11 09:44:10;;;;;;;26.92;14.73;;;17.30;99.90;;;;;;5102615;28;20085;-71
2023/10/11 09:46:36;;;;;;;26.48;13.13;;;17.30;99.90;;;;;;5101828;28;20567;-75
2023/10/11 09:49:12;;;;;;;30.80;14.73;;;17.30;99.90;;;;;;5102756;28;20016;-74
2023/10/11 09:51:41;;;;;;;31.63;15.00;;;17.30;99.90;;;;;;5102811;28;20027;-74
2023/10/11 09:54:15;;;;;;;28.38;14.50;;;17.40;99.90;;;;;;5101312;28;20436;-73
2023/10/11 09:56:48;;;;;;;;;;;17.40;99.90;;;;;;5102864;28;20035;-76
2023/10/11 09:59:59;;;;;;;30.60;14.70;;;17.40;99.90;;;;;;5102596;28;19908;-70
2023/10/11 10:02:40;;;;;;;30.63;14.55;;;17.40;99.90;;;;;;5100962;28;20024;-73
2023/10/11 10:05:10;;;;;;;32.35;15.05;;;17.40;99.90;;;;;;5102238;28;20028;-75
2023/10/11 10:10:06;;;;;;;32.70;15.35;;;17.40;99.90;;;;;;5102013;28;20142;-81
2023/10/11 10:12:34;;;;;;;30.27;14.93;;;17.30;99.90;;;;;;5102476;28;20066;-71
2023/10/11 10:15:08;;;;;;;31.42;15.63;;;17.30;99.90;;;;;;5102399;28;20149;-71
2023/10/11 10:17:35;;;;;;;37.58;16.55;;;17.30;99.90;;;;;;5101900;28;20024;-74
2023/10/11 10:20:32;;;;;;;34.00;16.83;;;17.20;99.90;;;;;;5102216;28;20048;-75
2023/10/11 10:23:22;;;;;;;32.88;14.95;;;17.20;99.90;;;;;;5102257;28;20689;-70
2023/10/11 10:25:50;;;;;;;36.42;16.98;;;17.20;99.90;;;;;;5099385;28;20044;-74
2023/10/11 10:28:39;;;;;;;31.25;16.60;;;17.20;99.90;;;;;;5102363;28;20128;-78
2023/10/11 10:31:09;;;;;;;39.20;17.67;;;17.20;99.90;;;;;;5102161;28;21043;-77
2023/10/11 10:33:36;;;;;;;35.22;17.83;;;17.10;99.90;;;;;;5100580;28;20024;-74
2023/10/11 10:36:18;;;;;;;38.10;18.27;;;17.10;99.90;;;;;;5100818;28;20064;-75
2023/10/11 10:41:39;;;;;;;34.42;17.65;;;17.10;99.90;;;;;;5101785;28;20024;-72
2023/10/11 10:44:17;;;;;;;38.63;19.25;;;17.00;99.90;;;;;;5102048;28;20031;-76
2023/10/11 10:46:59;;;;;;;35.88;18.42;;;16.90;99.90;;;;;;5100483;28;20358;-78
2023/10/11 10:49:42;;;;;;;37.55;17.88;;;16.90;99.90;;;;;;5100735;28;20032;-75
2023/10/11 10:52:18;;;;;;;32.45;17.48;;;16.90;99.90;;;;;;5102049;28;20028;-75
2023/10/11 10:55:02;;;;;;;38.30;20.67;;;16.80;99.90;;;;;;5101511;28;20048;-76
2023/10/11 10:57:41;;;;;;;39.55;20.02;;;16.80;99.90;;;;;;5101875;28;20477;-75
2023/10/11 11:00:20;;;;;;;39.70;20.13;;;16.80;99.90;;;;;;5099877;28;20036;-76
2023/10/11 11:02:46;;;;;;;49.03;21.40;;;16.80;99.90;;;;;;5100509;28;20046;-75
2023/10/11 11:05:15;;;;;;;41.53;19.95;;;16.70;99.90;;;;;;5102003;28;20073;-75
2023/10/11 11:07:47;;;;;;;46.10;20.67;;;16.80;99.90;;;;;;5100681;28;20036;-74
2023/10/11 11:10:18;;;;;;;46.90;21.70;;;16.80;99.90;;;;;;5101516;28;20067;-76
2023/10/11 11:12:44;;;;;;;32.05;17.67;;;16.70;99.90;;;;;;5101677;28;20039;-71
2023/10/11 11:15:13;;;;;;;37.15;17.20;;;16.80;99.90;;;;;;5101110;28;20671;-74
2023/10/11 11:17:46;;;;;;;39.22;18.52;;;16.80;99.90;;;;;;5101490;28;20080;-74
2023/10/11 11:20:27;;;;;;;37.15;19.05;;;16.80;99.90;;;;;;5101104;28;20036;-71
2023/10/11 11:22:53;;;;;;;34.20;18.90;;;16.80;99.90;;;;;;5101152;28;20028;-73
2023/10/11 11:28:02;;;;;;;35.33;18.98;;;16.90;99.90;;;;;;5096767;28;20029;-75
2023/10/11 11:30:34;;;;;;;38.80;19.08;;;16.90;99.90;;;;;;5097679;28;20107;-76
2023/10/11 11:33:13;;;;;;;34.47;19.27;;;16.90;99.90;;;;;;5100089;28;20031;-76
2023/10/11 11:35:44;;;;;;;33.50;17.15;;;17.00;99.90;;;;;;5095073;28;20055;-78
2023/10/11 11:38:20;;;;;;;33.47;17.13;;;17.00;99.90;;;;;;5098888;28;20425;-77
2023/10/11 11:40:51;;;;;;;31.98;18.23;;;17.10;99.90;;;;;;5097932;28;20059;-74
2023/10/11 11:43:20;;;;;;;29.73;16.05;;;17.10;99.90;;;;;;5098915;28;20100;-73
2023/10/11 11:45:47;;;;;;;33.30;17.50;;;17.10;99.90;;;;;;5101235;28;20024;-73
2023/10/11 11:48:23;;;;;;;32.20;16.67;;;17.20;99.90;;;;;;5100369;28;20032;-73
2023/10/11 11:50:50;;;;;;;35.03;17.40;;;17.20;99.90;;;;;;5101015;28;20034;-76
2023/10/11 11:53:18;;;;;;;33.72;17.35;;;17.20;99.90;;;;;;5099827;28;20028;-74
2023/10/11 11:55:45;;;;;;;34.75;17.55;;;17.30;99.90;;;;;;5099850;28;20051;-81
2023/10/11 11:58:11;;;;;;;36.83;17.63;;;17.30;99.90;;;;;;5101231;28;20115;-72
2023/10/11 12:00:39;;;;;;;31.90;18.00;;;17.30;99.90;;;;;;5104650;28;20537;-74
2023/10/11 12:03:05;;;;;;;37.10;16.05;;;17.30;99.90;;;;;;5105034;28;20028;-68
2023/10/11 12:05:37;;;;;;;32.67;17.65;;;17.40;99.90;;;;;;5104351;28;20028;-76
2023/10/11 12:08:08;;;;;;;34.60;17.88;;;17.50;99.90;;;;;;5103889;28;20053;-75
2023/10/11 12:10:37;;;;;;;37.22;17.75;;;17.80;99.90;;;;;;5104908;28;20023;-76
2023/10/11 12:13:06;;;;;;;28.25;16.08;;;17.90;99.90;;;;;;5104611;28;20457;-71
2023/10/11 12:15:35;;;;;;;30.17;17.85;;;17.90;99.90;;;;;;5102809;28;20113;-71
2023/10/11 12:18:05;;;;;;;30.55;16.70;;;17.90;99.90;;;;;;5104432;28;20496;-70
2023/10/11 12:20:34;;;;;;;31.40;15.40;;;17.80;99.90;;;;;;5104763;28;20028;-72
2023/10/11 12:23:10;;;;;;;29.40;16.23;;;17.80;99.90;;;;;;5103372;28;20092;-74
2023/10/11 12:25:36;;;;;;;30.65;17.27;;;18.00;99.90;;;;;;5103227;28;20028;-76
2023/10/11 12:28:04;;;;;;;42.05;19.38;;;18.10;99.90;;;;;;5103180;28;20020;-68
2023/10/11 12:30:33;;;;;;;26.48;14.57;;;18.20;99.90;;;;;;5104469;28;20074;-75
2023/10/11 12:33:06;;;;;;;27.85;15.05;;;18.10;99.90;;;;;;5102621;28;20034;-71
2023/10/11 12:35:41;;;;;;;26.23;13.95;;;18.20;99.90;;;;;;5102463;28;20109;-70
2023/10/11 12:38:17;;;;;;;24.00;13.95;;;18.30;99.90;;;;;;5104435;28;20042;-75
2023/10/11 12:40:44;;;;;;;26.80;14.00;;;18.40;99.90;;;;;;5103049;28;20024;-75
2023/10/11 12:43:10;;;;;;;29.33;14.48;;;18.60;99.90;;;;;;5103915;28;20046;-75
2023/10/11 12:45:41;;;;;;;25.13;13.60;;;18.60;99.90;;;;;;5103063;28;20024;-73
2023/10/11 12:48:10;;;;;;;26.50;13.43;;;18.70;99.90;;;;;;5104037;28;20020;-74
2023/10/11 12:50:38;;;;;;;23.17;13.63;;;18.70;99.90;;;;;;5101246;28;20024;-77
2023/10/11 12:53:13;;;;;;;24.52;13.52;;;18.70;99.90;;;;;;5101073;28;20084;-76
2023/10/11 12:55:41;;;;;;;;;;;18.50;99.90;;;;;;5102154;28;20063;-72
2023/10/11 12:58:13;;;;;;;27.75;13.80;;;18.40;99.90;;;;;;5103139;28;19907;-75
2023/10/11 13:00:48;;;;;;;22.58;11.20;;;18.30;99.90;;;;;;5103281;28;20047;-72
2023/10/11 13:03:28;;;;;;;;;;;18.20;99.90;;;;;;5102737;28;20039;-74
2023/10/11 13:05:55;;;;;;;18.70;11.65;;;18.20;99.90;;;;;;5101982;28;19912;-75
2023/10/11 13:08:28;;;;;;;26.73;11.68;;;18.10;99.90;;;;;;5100839;28;20020;-75
2023/10/11 13:10:54;;;;;;;19.33;11.48;;;18.10;99.90;;;;;;5102448;28;20119;-76
2023/10/11 13:13:23;;;;;;;20.08;11.27;;;18.00;99.90;;;;;;5103839;28;20020;-74
2023/10/11 13:16:00;;;;;;;19.30;11.30;;;18.00;99.90;;;;;;5102381;28;20036;-75
2023/10/11 13:18:27;;;;;;;22.58;10.90;;;18.00;99.90;;;;;;5102342;28;20139;-71
2023/10/11 13:20:56;;;;;;;19.92;10.90;;;18.00;99.90;;;;;;5101901;28;20024;-77
2023/10/11 13:23:28;;;;;;;21.05;10.50;;;18.10;99.90;;;;;;5099951;28;20031;-76
2023/10/11 13:25:55;;;;;;;19.95;10.45;;;18.10;99.90;;;;;;5099974;28;20020;-70
2023/10/11 13:28:21;;;;;;;21.95;11.25;;;18.20;99.90;;;;;;5102605;28;20020;-71
2023/10/11 13:30:47;;;;;;;20.65;8.98;;;18.30;99.90;;;;;;5103630;28;20373;-74
2023/10/11 13:33:15;;;;;;;18.30;10.93;;;18.50;99.90;;;;;;5103503;28;20024;-74
2023/10/11 13:35:41;;;;;;;19.83;11.45;;;18.50;99.90;;;;;;5101813;28;20043;-72
2023/10/11 13:38:17;;;;;;;23.67;10.43;;;18.60;99.90;;;;;;5102859;28;20107;-72
2023/10/11 13:40:46;;;;;;;17.58;10.13;;;18.60;99.90;;;;;;5102485;28;20859;-76
2023/10/11 13:43:13;;;;;;;19.73;10.35;;;18.70;99.90;;;;;;5098039;28;20047;-78
2023/10/11 13:45:41;;;;;;;18.30;9.98;;;18.70;99.90;;;;;;5102230;28;20545;-71
2023/10/11 13:48:13;;;;;;;18.65;9.60;;;18.70;99.90;;;;;;5102379;28;20032;-75
2023/10/11 13:50:49;;;;;;;20.70;9.45;;;18.70;99.90;;;;;;5102659;28;20020;-76
2023/10/11 13:53:17;;;;;;;17.10;9.43;;;18.60;99.90;;;;;;5103291;28;20855;-75
2023/10/11 13:55:43;;;;;;;21.63;9.57;;;18.50;99.90;;;;;;5102368;28;20135;-77
2023/10/11 13:58:10;;;;;;;21.02;10.25;;;18.50;99.90;;;;;;5102675;28;20052;-76
2023/10/11 14:05:50;;;;;;;17.95;9.57;;;18.50;99.90;;;;;;5102491;28;20028;-74
2023/10/11 14:08:25;;;;;;;19.08;10.00;;;18.40;99.90;;;;;;5101814;28;20022;-76